Lexington, Virginia
Current Conditions -  °F | °C
As of 5:15 PM on Saturday 25 Oct 2014 (Local Time) from KHSP Reporting Station
Broken Clouds Broken Clouds  
Wind Chill: 58°   Ceiling: 3400
Heat Index: 58°   Visibility: 10mi
Dew Point: 38°   Wind: 18mph
Humidity: 47%   Direction: 280°W
Pressure: 29.91"   Gusts: 29mph
Location:  37.79°N, 79.44°W
Report Text: KHSP 252115Z AUTO 28016G25KT 10SM BKN034 BKN040 15/04 A2991 RMK AO2 T01460035
Loading
Personal Weather Stations






























Interactive Weather Map New forecast layout! Learn more

10-Day Weather Forecast

Advertisements
Track Severe Weather on mobile